sensor_id;sensor_type;location;lat;lon;timestamp;pressure;altitude;pressure_sealevel;temperature;humidity
85507;BME280;75915;41.988;21.460;2024-03-23T00:55:40;98889.19;;;8.59;50.57
85507;BME280;75915;41.988;21.460;2024-03-23T00:58:06;98887.59;;;8.58;49.92
85507;BME280;75915;41.988;21.460;2024-03-23T01:00:32;98881.25;;;8.47;50.22
85507;BME280;75915;41.988;21.460;2024-03-23T01:02:57;98882.25;;;8.41;50.52
85507;BME280;75915;41.988;21.460;2024-03-23T01:08:18;98885.78;;;8.30;50.59
85507;BME280;75915;41.988;21.460;2024-03-23T01:11:07;98881.97;;;8.26;50.69
85507;BME280;75915;41.988;21.460;2024-03-23T01:13:37;98886.09;;;8.33;50.51
85507;BME280;75915;41.988;21.460;2024-03-23T01:16:08;98889.03;;;8.32;50.30
85507;BME280;75915;41.988;21.460;2024-03-23T01:18:42;98893.38;;;8.21;50.71
85507;BME280;75915;41.988;21.460;2024-03-23T01:21:37;98882.63;;;8.16;50.64
85507;BME280;75915;41.988;21.460;2024-03-23T01:24:24;98884.72;;;8.14;50.85
85507;BME280;75915;41.988;21.460;2024-03-23T01:26:49;98891.28;;;8.23;50.35
85507;BME280;75915;41.988;21.460;2024-03-23T01:29:15;98890.25;;;8.24;50.31
85507;BME280;75915;41.988;21.460;2024-03-23T01:31:40;98887.91;;;8.28;49.83
85507;BME280;75915;41.988;21.460;2024-03-23T01:34:05;98884.59;;;8.21;49.76
85507;BME280;75915;41.988;21.460;2024-03-23T01:36:31;98884.00;;;8.02;50.08
85507;BME280;75915;41.988;21.460;2024-03-23T01:38:56;98884.66;;;8.09;50.11
85507;BME280;75915;41.988;21.460;2024-03-23T01:41:24;98875.94;;;8.13;50.07
85507;BME280;75915;41.988;21.460;2024-03-23T01:43:50;98881.84;;;8.16;49.86
85507;BME280;75915;41.988;21.460;2024-03-23T01:46:16;98889.28;;;8.13;49.92
85507;BME280;75915;41.988;21.460;2024-03-23T01:48:42;98890.06;;;7.97;50.13
85507;BME280;75915;41.988;21.460;2024-03-23T01:51:07;98886.75;;;7.90;50.16
85507;BME280;75915;41.988;21.460;2024-03-23T01:53:34;98885.47;;;7.93;50.81
85507;BME280;75915;41.988;21.460;2024-03-23T01:55:59;98883.63;;;7.93;50.85
85507;BME280;75915;41.988;21.460;2024-03-23T01:58:25;98887.00;;;7.88;50.89
85507;BME280;75915;41.988;21.460;2024-03-23T02:00:50;98881.69;;;7.88;51.06
85507;BME280;75915;41.988;21.460;2024-03-23T02:03:26;98888.03;;;7.87;50.83
85507;BME280;75915;41.988;21.460;2024-03-23T02:05:52;98883.19;;;7.84;50.89
85507;BME280;75915;41.988;21.460;2024-03-23T02:08:18;98878.84;;;7.78;51.13
85507;BME280;75915;41.988;21.460;2024-03-23T02:10:45;98887.38;;;7.80;50.94
85507;BME280;75915;41.988;21.460;2024-03-23T02:13:10;98884.00;;;7.85;50.97
85507;BME280;75915;41.988;21.460;2024-03-23T02:15:39;98889.09;;;7.86;51.09
85507;BME280;75915;41.988;21.460;2024-03-23T02:18:05;98890.97;;;7.86;50.78
85507;BME280;75915;41.988;21.460;2024-03-23T02:20:30;98886.94;;;7.83;51.13
85507;BME280;75915;41.988;21.460;2024-03-23T02:22:57;98896.69;;;7.78;50.81
85507;BME280;75915;41.988;21.460;2024-03-23T02:25:22;98891.16;;;7.67;50.74
85507;BME280;75915;41.988;21.460;2024-03-23T02:27:48;98885.84;;;7.67;51.29
85507;BME280;75915;41.988;21.460;2024-03-23T02:30:14;98895.13;;;7.65;50.92
85507;BME280;75915;41.988;21.460;2024-03-23T02:32:41;98891.81;;;7.58;51.11
85507;BME280;75915;41.988;21.460;2024-03-23T02:35:07;98896.56;;;7.56;51.42
85507;BME280;75915;41.988;21.460;2024-03-23T02:37:32;98895.75;;;7.55;51.02
85507;BME280;75915;41.988;21.460;2024-03-23T02:39:58;98895.09;;;7.48;51.83
85507;BME280;75915;41.988;21.460;2024-03-23T02:42:24;98894.59;;;7.51;51.79
85507;BME280;75915;41.988;21.460;2024-03-23T02:44:51;98894.88;;;7.50;51.50
85507;BME280;75915;41.988;21.460;2024-03-23T02:47:16;98889.53;;;7.50;51.83
85507;BME280;75915;41.988;21.460;2024-03-23T02:49:41;98897.97;;;7.46;51.34
85507;BME280;75915;41.988;21.460;2024-03-23T02:52:07;98892.19;;;7.50;51.73
85507;BME280;75915;41.988;21.460;2024-03-23T02:54:33;98898.72;;;7.42;51.72
85507;BME280;75915;41.988;21.460;2024-03-23T02:56:58;98900.91;;;7.45;51.49
85507;BME280;75915;41.988;21.460;2024-03-23T02:59:24;98901.53;;;7.35;51.88
85507;BME280;75915;41.988;21.460;2024-03-23T03:01:51;98899.88;;;7.34;51.94
85507;BME280;75915;41.988;21.460;2024-03-23T03:04:22;98897.13;;;7.29;52.02
85507;BME280;75915;41.988;21.460;2024-03-23T03:06:48;98900.84;;;7.28;52.03
85507;BME280;75915;41.988;21.460;2024-03-23T03:09:14;98899.50;;;7.14;52.01
85507;BME280;75915;41.988;21.460;2024-03-23T03:11:39;98899.50;;;7.14;52.06
85507;BME280;75915;41.988;21.460;2024-03-23T03:14:05;98904.47;;;7.10;52.13
85507;BME280;75915;41.988;21.460;2024-03-23T03:16:32;98899.03;;;7.17;52.04
85507;BME280;75915;41.988;21.460;2024-03-23T03:18:58;98900.44;;;7.08;52.02
85507;BME280;75915;41.988;21.460;2024-03-23T03:21:25;98900.81;;;6.99;52.71
85507;BME280;75915;41.988;21.460;2024-03-23T03:23:52;98898.16;;;6.99;52.63
85507;BME280;75915;41.988;21.460;2024-03-23T03:26:18;98894.69;;;6.99;52.55
85507;BME280;75915;41.988;21.460;2024-03-23T03:28:43;98896.31;;;6.88;53.13
85507;BME280;75915;41.988;21.460;2024-03-23T03:31:20;98899.91;;;6.94;53.03
85507;BME280;75915;41.988;21.460;2024-03-23T03:33:46;98897.84;;;6.84;53.61
85507;BME280;75915;41.988;21.460;2024-03-23T03:36:13;98897.59;;;6.74;53.78
85507;BME280;75915;41.988;21.460;2024-03-23T03:38:38;98902.22;;;6.78;53.66
85507;BME280;75915;41.988;21.460;2024-03-23T03:41:04;98904.56;;;6.87;53.47
85507;BME280;75915;41.988;21.460;2024-03-23T03:43:31;98897.69;;;6.91;53.44
85507;BME280;75915;41.988;21.460;2024-03-23T03:45:58;98897.25;;;6.94;53.39
85507;BME280;75915;41.988;21.460;2024-03-23T03:48:24;98897.25;;;6.94;53.21
85507;BME280;75915;41.988;21.460;2024-03-23T03:50:49;98902.91;;;6.97;53.31
85507;BME280;75915;41.988;21.460;2024-03-23T03:53:16;98898.03;;;7.06;52.95
85507;BME280;75915;41.988;21.460;2024-03-23T03:55:41;98897.66;;;7.02;52.87
85507;BME280;75915;41.988;21.460;2024-03-23T03:58:07;98904.16;;;7.07;52.88
85507;BME280;75915;41.988;21.460;2024-03-23T04:00:32;98902.78;;;7.04;53.20
85507;BME280;75915;41.988;21.460;2024-03-23T04:02:58;98897.09;;;7.00;53.03
85507;BME280;75915;41.988;21.460;2024-03-23T04:05:24;98905.44;;;7.04;53.04
85507;BME280;75915;41.988;21.460;2024-03-23T04:07:50;98900.34;;;7.02;53.24
85507;BME280;75915;41.988;21.460;2024-03-23T04:10:17;98909.72;;;6.93;53.65
85507;BME280;75915;41.988;21.460;2024-03-23T04:12:43;98907.44;;;6.85;54.00
85507;BME280;75915;41.988;21.460;2024-03-23T04:15:12;98906.63;;;6.84;53.97
85507;BME280;75915;41.988;21.460;2024-03-23T04:17:38;98905.22;;;6.94;53.75
85507;BME280;75915;41.988;21.460;2024-03-23T04:20:04;98911.13;;;6.96;53.92
85507;BME280;75915;41.988;21.460;2024-03-23T04:22:34;98918.06;;;6.97;54.03
85507;BME280;75915;41.988;21.460;2024-03-23T04:25:03;98912.84;;;7.02;54.00
85507;BME280;75915;41.988;21.460;2024-03-23T04:27:36;98911.66;;;7.10;53.67
85507;BME280;75915;41.988;21.460;2024-03-23T04:30:03;98913.31;;;6.99;53.80
85507;BME280;75915;41.988;21.460;2024-03-23T04:32:31;98913.66;;;7.02;54.01
85507;BME280;75915;41.988;21.460;2024-03-23T04:34:57;98908.44;;;6.96;54.03
85507;BME280;75915;41.988;21.460;2024-03-23T04:37:22;98913.56;;;6.97;53.96
85507;BME280;75915;41.988;21.460;2024-03-23T04:39:48;98915.19;;;6.87;54.48
85507;BME280;75915;41.988;21.460;2024-03-23T04:42:17;98919.84;;;6.79;54.64
85507;BME280;75915;41.988;21.460;2024-03-23T04:44:42;98922.41;;;6.62;55.41
85507;BME280;75915;41.988;21.460;2024-03-23T04:47:10;98922.63;;;6.73;55.33
85507;BME280;75915;41.988;21.460;2024-03-23T04:49:36;98921.81;;;6.72;55.31
85507;BME280;75915;41.988;21.460;2024-03-23T04:52:03;98927.94;;;6.61;55.46
85507;BME280;75915;41.988;21.460;2024-03-23T04:54:30;98924.25;;;6.38;56.45
85507;BME280;75915;41.988;21.460;2024-03-23T04:56:57;98933.13;;;6.32;56.81
85507;BME280;75915;41.988;21.460;2024-03-23T04:59:23;98930.47;;;6.32;56.89
85507;BME280;75915;41.988;21.460;2024-03-23T05:01:48;98925.97;;;6.56;56.22
85507;BME280;75915;41.988;21.460;2024-03-23T05:04:15;98922.00;;;7.06;55.00
85507;BME280;75915;41.988;21.460;2024-03-23T05:06:43;98922.59;;;7.37;54.25
85507;BME280;75915;41.988;21.460;2024-03-23T05:09:10;98923.13;;;7.79;53.29
85507;BME280;75915;41.988;21.460;2024-03-23T05:11:38;98928.09;;;8.21;52.34
85507;BME280;75915;41.988;21.460;2024-03-23T05:14:04;98922.59;;;8.62;51.09
85507;BME280;75915;41.988;21.460;2024-03-23T05:16:29;98927.41;;;8.82;50.46
85507;BME280;75915;41.988;21.460;2024-03-23T05:18:55;98921.06;;;9.05;50.10
85507;BME280;75915;41.988;21.460;2024-03-23T05:21:22;98920.34;;;9.36;49.29
85507;BME280;75915;41.988;21.460;2024-03-23T05:23:47;98922.19;;;9.58;48.84
85507;BME280;75915;41.988;21.460;2024-03-23T05:26:14;98918.06;;;9.72;48.38
85507;BME280;75915;41.988;21.460;2024-03-23T05:28:40;98922.66;;;9.77;48.47
85507;BME280;75915;41.988;21.460;2024-03-23T05:31:06;98920.66;;;9.89;48.30
85507;BME280;75915;41.988;21.460;2024-03-23T05:33:34;98920.59;;;10.16;47.89
85507;BME280;75915;41.988;21.460;2024-03-23T05:36:01;98917.81;;;10.01;47.73
85507;BME280;75915;41.988;21.460;2024-03-23T05:38:26;98922.09;;;10.02;48.47
85507;BME280;75915;41.988;21.460;2024-03-23T05:41:00;98909.53;;;10.77;46.83
85507;BME280;75915;41.988;21.460;2024-03-23T05:43:26;98909.28;;;11.37;44.97
85507;BME280;75915;41.988;21.460;2024-03-23T05:45:55;98911.50;;;11.60;45.21
85507;BME280;75915;41.988;21.460;2024-03-23T05:48:21;98904.34;;;11.91;43.81
85507;BME280;75915;41.988;21.460;2024-03-23T05:50:49;98908.63;;;12.28;43.15
85507;BME280;75915;41.988;21.460;2024-03-23T05:53:16;98909.97;;;12.31;42.78
85507;BME280;75915;41.988;21.460;2024-03-23T05:55:42;98906.91;;;12.94;42.17
85507;BME280;75915;41.988;21.460;2024-03-23T05:58:08;98903.13;;;12.90;42.08
85507;BME280;75915;41.988;21.460;2024-03-23T06:00:35;98912.38;;;12.17;43.18
85507;BME280;75915;41.988;21.460;2024-03-23T06:03:00;98911.03;;;11.89;44.08
85507;BME280;75915;41.988;21.460;2024-03-23T06:05:26;98911.31;;;12.33;43.68
85507;BME280;75915;41.988;21.460;2024-03-23T06:07:52;98911.28;;;12.54;43.48
85507;BME280;75915;41.988;21.460;2024-03-23T06:10:18;98906.72;;;12.59;43.25
85507;BME280;75915;41.988;21.460;2024-03-23T06:12:48;98903.16;;;12.79;42.61
85507;BME280;75915;41.988;21.460;2024-03-23T06:15:14;98910.34;;;13.05;42.65
85507;BME280;75915;41.988;21.460;2024-03-23T06:17:41;98906.00;;;13.19;42.12
85507;BME280;75915;41.988;21.460;2024-03-23T06:20:07;98913.00;;;13.20;42.05
85507;BME280;75915;41.988;21.460;2024-03-23T06:22:32;98912.25;;;13.04;42.07
85507;BME280;75915;41.988;21.460;2024-03-23T06:24:58;98913.56;;;13.07;42.95
85507;BME280;75915;41.988;21.460;2024-03-23T06:27:24;98915.94;;;13.29;42.40
85507;BME280;75915;41.988;21.460;2024-03-23T06:29:50;98917.41;;;12.90;43.43
85507;BME280;75915;41.988;21.460;2024-03-23T06:32:18;98915.41;;;13.32;42.63
85507;BME280;75915;41.988;21.460;2024-03-23T06:34:46;98909.19;;;13.26;42.48
85507;BME280;75915;41.988;21.460;2024-03-23T06:37:12;98913.81;;;13.15;42.68
85507;BME280;75915;41.988;21.460;2024-03-23T06:39:39;98913.69;;;13.51;42.30
85507;BME280;75915;41.988;21.460;2024-03-23T06:42:05;98910.13;;;14.00;41.52
85507;BME280;75915;41.988;21.460;2024-03-23T06:44:33;98908.38;;;13.85;41.45
85507;BME280;75915;41.988;21.460;2024-03-23T06:47:00;98908.84;;;13.53;42.16
85507;BME280;75915;41.988;21.460;2024-03-23T06:49:25;98907.19;;;12.87;43.55
85507;BME280;75915;41.988;21.460;2024-03-23T06:51:52;98916.38;;;13.51;42.72
85507;BME280;75915;41.988;21.460;2024-03-23T06:54:19;98913.44;;;13.92;42.19
85507;BME280;75915;41.988;21.460;2024-03-23T06:56:45;98908.16;;;14.16;41.53
85507;BME280;75915;41.988;21.460;2024-03-23T06:59:12;98900.09;;;14.11;41.99
85507;BME280;75915;41.988;21.460;2024-03-23T07:01:37;98896.47;;;14.26;41.23
85507;BME280;75915;41.988;21.460;2024-03-23T07:04:04;98910.84;;;13.27;42.02
85507;BME280;75915;41.988;21.460;2024-03-23T07:06:33;98900.69;;;13.63;42.38
85507;BME280;75915;41.988;21.460;2024-03-23T07:08:58;98908.06;;;13.92;42.37
85507;BME280;75915;41.988;21.460;2024-03-23T07:11:24;98901.25;;;14.34;41.45
85507;BME280;75915;41.988;21.460;2024-03-23T07:13:52;98908.84;;;14.61;40.40
85507;BME280;75915;41.988;21.460;2024-03-23T07:16:20;98903.00;;;14.49;40.59
85507;BME280;75915;41.988;21.460;2024-03-23T07:18:50;98908.22;;;13.66;42.23
85507;BME280;75915;41.988;21.460;2024-03-23T07:21:15;98908.66;;;13.79;41.93
85507;BME280;75915;41.988;21.460;2024-03-23T07:23:44;98906.66;;;12.90;43.23
85507;BME280;75915;41.988;21.460;2024-03-23T07:26:12;98898.22;;;13.12;43.55
85507;BME280;75915;41.988;21.460;2024-03-23T07:28:39;98895.94;;;13.45;42.45
85507;BME280;75915;41.988;21.460;2024-03-23T07:31:10;98890.31;;;13.41;42.39
85507;BME280;75915;41.988;21.460;2024-03-23T07:33:42;98889.53;;;13.36;43.15
85507;BME280;75915;41.988;21.460;2024-03-23T07:36:16;98888.44;;;12.67;44.87
85507;BME280;75915;41.988;21.460;2024-03-23T07:38:42;98884.72;;;13.22;44.71
85507;BME280;75915;41.988;21.460;2024-03-23T07:41:11;98888.19;;;13.33;44.04
85507;BME280;75915;41.988;21.460;2024-03-23T07:43:38;98885.25;;;12.49;45.85
85507;BME280;75915;41.988;21.460;2024-03-23T07:46:05;98882.03;;;12.11;47.26
85507;BME280;75915;41.988;21.460;2024-03-23T07:48:31;98883.59;;;12.53;47.41
85507;BME280;75915;41.988;21.460;2024-03-23T07:51:08;98880.56;;;12.80;47.65
85507;BME280;75915;41.988;21.460;2024-03-23T07:53:35;98883.38;;;12.45;49.09
85507;BME280;75915;41.988;21.460;2024-03-23T07:58:29;98883.91;;;12.26;50.87
85507;BME280;75915;41.988;21.460;2024-03-23T08:01:15;98878.00;;;12.19;50.85
85507;BME280;75915;41.988;21.460;2024-03-23T08:03:42;98878.25;;;12.43;50.71
85507;BME280;75915;41.988;21.460;2024-03-23T08:06:15;98881.47;;;12.50;50.84
85507;BME280;75915;41.988;21.460;2024-03-23T08:08:45;98880.25;;;12.92;49.34
85507;BME280;75915;41.988;21.460;2024-03-23T08:11:13;98867.03;;;13.11;48.71
85507;BME280;75915;41.988;21.460;2024-03-23T08:13:40;98871.59;;;13.11;48.75
85507;BME280;75915;41.988;21.460;2024-03-23T08:16:08;98867.94;;;12.81;48.98
85507;BME280;75915;41.988;21.460;2024-03-23T08:18:37;98862.81;;;13.50;47.88
85507;BME280;75915;41.988;21.460;2024-03-23T08:21:06;98856.94;;;14.16;45.94
85507;BME280;75915;41.988;21.460;2024-03-23T08:23:36;98858.69;;;14.31;46.03
85507;BME280;75915;41.988;21.460;2024-03-23T08:26:10;98862.88;;;14.18;47.06
85507;BME280;75915;41.988;21.460;2024-03-23T08:28:37;98859.28;;;13.94;47.90
85507;BME280;75915;41.988;21.460;2024-03-23T08:31:05;98852.94;;;14.08;46.41
85507;BME280;75915;41.988;21.460;2024-03-23T08:33:36;98854.38;;;14.01;47.35
85507;BME280;75915;41.988;21.460;2024-03-23T08:36:15;98847.13;;;13.96;47.05
85507;BME280;75915;41.988;21.460;2024-03-23T08:38:40;98849.97;;;14.39;45.70
85507;BME280;75915;41.988;21.460;2024-03-23T08:41:10;98849.06;;;13.56;47.44
85507;BME280;75915;41.988;21.460;2024-03-23T08:43:40;98852.19;;;13.69;46.97
85507;BME280;75915;41.988;21.460;2024-03-23T08:46:15;98853.88;;;12.99;48.02
85507;BME280;75915;41.988;21.460;2024-03-23T08:48:43;98838.44;;;12.60;50.22
85507;BME280;75915;41.988;21.460;2024-03-23T08:51:11;98841.94;;;12.66;49.57
85507;BME280;75915;41.988;21.460;2024-03-23T08:53:37;98834.44;;;12.48;50.03
85507;BME280;75915;41.988;21.460;2024-03-23T08:56:03;98831.47;;;13.14;49.04
85507;BME280;75915;41.988;21.460;2024-03-23T08:58:30;98822.75;;;13.43;48.03
85507;BME280;75915;41.988;21.460;2024-03-23T09:01:02;98823.91;;;13.32;48.77
85507;BME280;75915;41.988;21.460;2024-03-23T09:03:29;98810.38;;;13.42;48.57
85507;BME280;75915;41.988;21.460;2024-03-23T09:05:54;98804.53;;;13.69;47.51
85507;BME280;75915;41.988;21.460;2024-03-23T09:08:20;98791.09;;;13.98;47.44
85507;BME280;75915;41.988;21.460;2024-03-23T09:10:48;98796.94;;;13.76;47.13
85507;BME280;75915;41.988;21.460;2024-03-23T09:13:14;98783.84;;;13.64;47.66
85507;BME280;75915;41.988;21.460;2024-03-23T09:15:49;98785.16;;;14.25;47.19
85507;BME280;75915;41.988;21.460;2024-03-23T09:18:15;98786.97;;;14.06;46.24
85507;BME280;75915;41.988;21.460;2024-03-23T09:20:41;98766.28;;;14.25;45.96
85507;BME280;75915;41.988;21.460;2024-03-23T09:23:06;98765.84;;;14.42;45.45
85507;BME280;75915;41.988;21.460;2024-03-23T09:25:36;98764.34;;;14.60;44.96
85507;BME280;75915;41.988;21.460;2024-03-23T09:28:07;98758.97;;;14.07;45.28
85507;BME280;75915;41.988;21.460;2024-03-23T09:30:35;98754.19;;;13.35;47.74
85507;BME280;75915;41.988;21.460;2024-03-23T09:33:00;98753.22;;;13.55;47.31
85507;BME280;75915;41.988;21.460;2024-03-23T09:35:26;98743.75;;;13.63;48.72
85507;BME280;75915;41.988;21.460;2024-03-23T09:37:52;98737.22;;;13.98;47.84
85507;BME280;75915;41.988;21.460;2024-03-23T09:40:19;98730.97;;;14.27;46.85
85507;BME280;75915;41.988;21.460;2024-03-23T09:42:50;98723.34;;;14.34;46.44
85507;BME280;75915;41.988;21.460;2024-03-23T09:45:27;98722.31;;;14.97;46.25
85507;BME280;75915;41.988;21.460;2024-03-23T09:47:52;98716.63;;;15.18;42.95
85507;BME280;75915;41.988;21.460;2024-03-23T09:50:18;98705.41;;;15.43;43.03
85507;BME280;75915;41.988;21.460;2024-03-23T09:52:47;98705.97;;;15.59;42.60
85507;BME280;75915;41.988;21.460;2024-03-23T09:55:12;98701.25;;;15.65;41.99
85507;BME280;75915;41.988;21.460;2024-03-23T09:57:39;98695.66;;;15.28;42.38
85507;BME280;75915;41.988;21.460;2024-03-23T10:00:05;98689.13;;;15.15;42.72
85507;BME280;75915;41.988;21.460;2024-03-23T10:02:31;98682.94;;;15.15;43.00
85507;BME280;75915;41.988;21.460;2024-03-23T10:04:59;98685.09;;;15.32;41.25
85507;BME280;75915;41.988;21.460;2024-03-23T10:07:26;98680.75;;;14.98;40.99
85507;BME280;75915;41.988;21.460;2024-03-23T10:09:56;98675.28;;;15.03;42.68
85507;BME280;75915;41.988;21.460;2024-03-23T10:12:24;98666.28;;;15.41;42.29
85507;BME280;75915;41.988;21.460;2024-03-23T10:14:50;98663.91;;;15.72;42.11
85507;BME280;75915;41.988;21.460;2024-03-23T10:17:19;98661.91;;;15.91;39.14
85507;BME280;75915;41.988;21.460;2024-03-23T10:19:49;98660.28;;;15.30;38.31
85507;BME280;75915;41.988;21.460;2024-03-23T10:22:27;98659.63;;;15.19;41.75
85507;BME280;75915;41.988;21.460;2024-03-23T10:25:07;98650.56;;;15.62;41.36
85507;BME280;75915;41.988;21.460;2024-03-23T10:27:34;98643.59;;;15.88;40.54
85507;BME280;75915;41.988;21.460;2024-03-23T10:30:13;98635.75;;;16.28;41.05
85507;BME280;75915;41.988;21.460;2024-03-23T10:32:45;98629.38;;;16.24;37.70
85507;BME280;75915;41.988;21.460;2024-03-23T10:35:18;98622.97;;;16.20;37.82
85507;BME280;75915;41.988;21.460;2024-03-23T10:37:45;98610.28;;;15.93;37.25
85507;BME280;75915;41.988;21.460;2024-03-23T10:40:13;98618.78;;;16.00;37.33
85507;BME280;75915;41.988;21.460;2024-03-23T10:42:39;98608.59;;;15.83;37.40
85507;BME280;75915;41.988;21.460;2024-03-23T10:45:05;98612.75;;;15.62;37.75
85507;BME280;75915;41.988;21.460;2024-03-23T10:47:31;98605.56;;;15.24;38.18
85507;BME280;75915;41.988;21.460;2024-03-23T10:49:57;98599.03;;;15.11;39.02
85507;BME280;75915;41.988;21.460;2024-03-23T10:52:23;98590.28;;;15.33;39.10
85507;BME280;75915;41.988;21.460;2024-03-23T10:54:49;98584.94;;;15.61;38.45
85507;BME280;75915;41.988;21.460;2024-03-23T10:57:18;98576.13;;;15.69;36.85
85507;BME280;75915;41.988;21.460;2024-03-23T10:59:46;98565.03;;;15.85;37.18
85507;BME280;75915;41.988;21.460;2024-03-23T11:02:21;98552.53;;;15.75;37.10
85507;BME280;75915;41.988;21.460;2024-03-23T11:04:47;98547.41;;;16.01;36.65
85507;BME280;75915;41.988;21.460;2024-03-23T11:09:53;98538.72;;;15.63;37.88
85507;BME280;75915;41.988;21.460;2024-03-23T11:15:04;98532.63;;;15.85;37.63
85507;BME280;75915;41.988;21.460;2024-03-23T11:17:38;98528.00;;;15.99;36.44
85507;BME280;75915;41.988;21.460;2024-03-23T11:20:05;98513.59;;;16.04;35.74
85507;BME280;75915;41.988;21.460;2024-03-23T11:25:15;98517.28;;;16.08;34.22
85507;BME280;75915;41.988;21.460;2024-03-23T11:27:41;98503.31;;;16.28;34.84
85507;BME280;75915;41.988;21.460;2024-03-23T11:30:18;98492.69;;;16.54;33.95
85507;BME280;75915;41.988;21.460;2024-03-23T11:32:49;98493.06;;;16.61;33.60
85507;BME280;75915;41.988;21.460;2024-03-23T11:35:31;98482.72;;;16.63;33.97
85507;BME280;75915;41.988;21.460;2024-03-23T11:38:17;98483.09;;;16.71;33.75
85507;BME280;75915;41.988;21.460;2024-03-23T11:40:48;98469.41;;;16.45;33.73
85507;BME280;75915;41.988;21.460;2024-03-23T11:43:18;98467.13;;;16.38;34.39
85507;BME280;75915;41.988;21.460;2024-03-23T11:45:51;98451.13;;;16.50;34.10
85507;BME280;75915;41.988;21.460;2024-03-23T11:48:23;98442.88;;;16.78;33.60
85507;BME280;75915;41.988;21.460;2024-03-23T11:50:50;98443.75;;;16.64;33.65
85507;BME280;75915;41.988;21.460;2024-03-23T11:53:17;98437.06;;;16.39;34.15
85507;BME280;75915;41.988;21.460;2024-03-23T11:55:51;98429.22;;;16.29;34.27
85507;BME280;75915;41.988;21.460;2024-03-23T11:58:20;98421.38;;;16.50;34.57
85507;BME280;75915;41.988;21.460;2024-03-23T12:00:59;98414.22;;;16.77;32.83
85507;BME280;75915;41.988;21.460;2024-03-23T12:03:27;98418.31;;;16.97;32.54
85507;BME280;75915;41.988;21.460;2024-03-23T12:06:03;98403.41;;;16.77;31.06
85507;BME280;75915;41.988;21.460;2024-03-23T12:08:34;98395.38;;;16.94;32.51
85507;BME280;75915;41.988;21.460;2024-03-23T12:13:34;98391.94;;;17.11;30.84
85507;BME280;75915;41.988;21.460;2024-03-23T12:18:34;98375.38;;;17.04;31.70
85507;BME280;75915;41.988;21.460;2024-03-23T12:20:59;98368.19;;;16.99;32.29
85507;BME280;75915;41.988;21.460;2024-03-23T12:23:25;98369.75;;;16.92;32.54
85507;BME280;75915;41.988;21.460;2024-03-23T12:25:50;98367.25;;;17.04;33.21
85507;BME280;75915;41.988;21.460;2024-03-23T12:28:16;98362.03;;;17.16;32.86
85507;BME280;75915;41.988;21.460;2024-03-23T12:30:42;98355.47;;;17.09;32.27
85507;BME280;75915;41.988;21.460;2024-03-23T12:33:07;98342.28;;;17.16;33.09
85507;BME280;75915;41.988;21.460;2024-03-23T12:35:33;98341.50;;;17.33;33.39
85507;BME280;75915;41.988;21.460;2024-03-23T12:37:59;98336.72;;;17.38;34.21
85507;BME280;75915;41.988;21.460;2024-03-23T12:40:24;98331.16;;;17.61;33.69
85507;BME280;75915;41.988;21.460;2024-03-23T12:42:50;98323.38;;;17.59;33.20
85507;BME280;75915;41.988;21.460;2024-03-23T12:45:15;98328.28;;;17.48;33.07
85507;BME280;75915;41.988;21.460;2024-03-23T12:47:41;98316.81;;;17.25;32.94
85507;BME280;75915;41.988;21.460;2024-03-23T12:50:07;98315.84;;;17.39;33.62
85507;BME280;75915;41.988;21.460;2024-03-23T12:52:34;98309.78;;;17.24;33.68
85507;BME280;75915;41.988;21.460;2024-03-23T12:54:59;98300.25;;;17.27;33.39
85507;BME280;75915;41.988;21.460;2024-03-23T12:57:29;98308.69;;;17.52;32.48
85507;BME280;75915;41.988;21.460;2024-03-23T12:59:56;98297.72;;;17.57;31.96
85507;BME280;75915;41.988;21.460;2024-03-23T13:02:23;98301.22;;;17.48;32.08
85507;BME280;75915;41.988;21.460;2024-03-23T13:04:54;98302.47;;;17.51;31.77
85507;BME280;75915;41.988;21.460;2024-03-23T13:07:21;98284.63;;;17.41;31.39
85507;BME280;75915;41.988;21.460;2024-03-23T13:09:50;98285.44;;;17.51;31.07
85507;BME280;75915;41.988;21.460;2024-03-23T13:12:16;98281.59;;;17.60;29.93
85507;BME280;75915;41.988;21.460;2024-03-23T13:14:45;98270.59;;;17.65;30.79
85507;BME280;75915;41.988;21.460;2024-03-23T13:17:11;98269.66;;;17.79;30.36
85507;BME280;75915;41.988;21.460;2024-03-23T13:19:36;98262.00;;;17.89;31.25
85507;BME280;75915;41.988;21.460;2024-03-23T13:22:03;98257.84;;;18.01;31.64
85507;BME280;75915;41.988;21.460;2024-03-23T13:24:29;98251.63;;;18.00;30.91
85507;BME280;75915;41.988;21.460;2024-03-23T13:26:55;98246.06;;;17.70;30.51
85507;BME280;75915;41.988;21.460;2024-03-23T13:29:21;98246.69;;;17.76;30.65
85507;BME280;75915;41.988;21.460;2024-03-23T13:31:49;98245.59;;;17.86;31.07
85507;BME280;75915;41.988;21.460;2024-03-23T13:34:19;98241.09;;;17.99;30.33
85507;BME280;75915;41.988;21.460;2024-03-23T13:36:47;98234.59;;;17.91;30.11
85507;BME280;75915;41.988;21.460;2024-03-23T13:39:14;98222.59;;;18.01;30.00
85507;BME280;75915;41.988;21.460;2024-03-23T13:41:44;98223.81;;;18.12;30.50
85507;BME280;75915;41.988;21.460;2024-03-23T13:44:13;98215.72;;;18.03;30.56
85507;BME280;75915;41.988;21.460;2024-03-23T13:46:40;98210.31;;;17.95;30.65
85507;BME280;75915;41.988;21.460;2024-03-23T13:49:25;98214.72;;;18.17;30.23
85507;BME280;75915;41.988;21.460;2024-03-23T13:51:52;98211.03;;;18.21;30.03
85507;BME280;75915;41.988;21.460;2024-03-23T13:54:19;98203.41;;;18.15;30.26
85507;BME280;75915;41.988;21.460;2024-03-23T13:56:45;98206.34;;;18.30;30.69
85507;BME280;75915;41.988;21.460;2024-03-23T13:59:11;98201.81;;;18.43;30.50
85507;BME280;75915;41.988;21.460;2024-03-23T14:01:37;98194.03;;;18.42;30.81
85507;BME280;75915;41.988;21.460;2024-03-23T14:04:02;98179.75;;;18.53;30.34
85507;BME280;75915;41.988;21.460;2024-03-23T14:06:28;98185.03;;;18.50;30.44
85507;BME280;75915;41.988;21.460;2024-03-23T14:08:54;98187.97;;;18.66;30.17